sensor_id;sensor_type;location;lat;lon;timestamp;pressure;altitude;pressure_sealevel;temperature;humidity
17649;BME280;8943;51.110;-4.158;2023-10-31T00:02:19;99174.56;;;16.24;57.19
17649;BME280;8943;51.110;-4.158;2023-10-31T00:04:50;99181.16;;;16.21;57.31
17649;BME280;8943;51.110;-4.158;2023-10-31T00:07:19;99179.03;;;16.17;57.41
17649;BME280;8943;51.110;-4.158;2023-10-31T00:09:49;99177.72;;;16.13;57.69
17649;BME280;8943;51.110;-4.158;2023-10-31T00:12:19;99183.28;;;16.11;57.15
17649;BME280;8943;51.110;-4.158;2023-10-31T00:14:48;99172.28;;;16.06;56.97
17649;BME280;8943;51.110;-4.158;2023-10-31T00:17:17;99185.88;;;16.05;57.17
17649;BME280;8943;51.110;-4.158;2023-10-31T00:19:46;99189.78;;;16.02;57.21
17649;BME280;8943;51.110;-4.158;2023-10-31T00:22:22;99197.16;;;16.00;57.23
17649;BME280;8943;51.110;-4.158;2023-10-31T00:24:54;99195.91;;;15.96;57.22
17649;BME280;8943;51.110;-4.158;2023-10-31T00:27:34;99196.25;;;15.93;57.21
17649;BME280;8943;51.110;-4.158;2023-10-31T00:30:09;99201.00;;;15.91;57.14
17649;BME280;8943;51.110;-4.158;2023-10-31T00:32:40;99195.78;;;15.89;57.37
17649;BME280;8943;51.110;-4.158;2023-10-31T00:35:14;99199.03;;;15.85;57.35
17649;BME280;8943;51.110;-4.158;2023-10-31T00:37:51;99203.56;;;15.84;57.51
17649;BME280;8943;51.110;-4.158;2023-10-31T00:43:33;99208.44;;;15.81;57.75
17649;BME280;8943;51.110;-4.158;2023-10-31T00:46:03;99210.31;;;15.80;57.70
17649;BME280;8943;51.110;-4.158;2023-10-31T00:48:48;99208.28;;;15.82;58.00
17649;BME280;8943;51.110;-4.158;2023-10-31T00:51:31;99214.97;;;15.86;58.09
17649;BME280;8943;51.110;-4.158;2023-10-31T00:54:12;99216.06;;;15.92;58.32
17649;BME280;8943;51.110;-4.158;2023-10-31T00:57:21;99211.81;;;15.98;58.52
17649;BME280;8943;51.110;-4.158;2023-10-31T00:59:59;99215.25;;;16.06;58.46
17649;BME280;8943;51.110;-4.158;2023-10-31T01:02:28;99208.31;;;16.12;58.25
17649;BME280;8943;51.110;-4.158;2023-10-31T01:04:59;99203.56;;;16.14;58.18
17649;BME280;8943;51.110;-4.158;2023-10-31T01:07:31;99204.41;;;16.14;58.11
17649;BME280;8943;51.110;-4.158;2023-10-31T01:10:17;99208.09;;;16.13;58.12
17649;BME280;8943;51.110;-4.158;2023-10-31T01:13:02;99206.66;;;16.11;57.92
17649;BME280;8943;51.110;-4.158;2023-10-31T01:15:46;99197.09;;;16.08;57.78
17649;BME280;8943;51.110;-4.158;2023-10-31T01:18:30;99210.25;;;16.03;57.47
17649;BME280;8943;51.110;-4.158;2023-10-31T01:21:00;99201.91;;;15.98;57.65
17649;BME280;8943;51.110;-4.158;2023-10-31T01:23:28;99208.03;;;15.92;57.48
17649;BME280;8943;51.110;-4.158;2023-10-31T01:26:05;99216.44;;;15.89;57.41
17649;BME280;8943;51.110;-4.158;2023-10-31T01:28:40;99214.50;;;15.83;57.47
17649;BME280;8943;51.110;-4.158;2023-10-31T01:31:40;99219.59;;;15.78;57.45
17649;BME280;8943;51.110;-4.158;2023-10-31T01:34:30;99215.13;;;15.70;57.52
17649;BME280;8943;51.110;-4.158;2023-10-31T01:37:35;99226.22;;;15.67;57.79
17649;BME280;8943;51.110;-4.158;2023-10-31T01:40:23;99230.25;;;15.63;57.52
17649;BME280;8943;51.110;-4.158;2023-10-31T01:42:56;99233.97;;;15.62;57.48
17649;BME280;8943;51.110;-4.158;2023-10-31T01:45:25;99231.44;;;15.60;57.55
17649;BME280;8943;51.110;-4.158;2023-10-31T01:47:54;99231.16;;;15.55;57.40
17649;BME280;8943;51.110;-4.158;2023-10-31T01:50:31;99228.47;;;15.55;57.66
17649;BME280;8943;51.110;-4.158;2023-10-31T01:53:05;99231.34;;;15.54;57.68
17649;BME280;8943;51.110;-4.158;2023-10-31T01:55:36;99233.84;;;15.55;57.88
17649;BME280;8943;51.110;-4.158;2023-10-31T01:58:08;99228.13;;;15.58;57.93
17649;BME280;8943;51.110;-4.158;2023-10-31T02:01:04;99234.97;;;15.61;58.25
17649;BME280;8943;51.110;-4.158;2023-10-31T02:03:46;99234.28;;;15.67;58.36
17649;BME280;8943;51.110;-4.158;2023-10-31T02:06:18;99235.56;;;15.71;58.47
17649;BME280;8943;51.110;-4.158;2023-10-31T02:08:57;99238.53;;;15.76;58.33
17649;BME280;8943;51.110;-4.158;2023-10-31T02:11:40;99236.34;;;15.80;58.36
17649;BME280;8943;51.110;-4.158;2023-10-31T02:14:13;99243.19;;;15.82;58.35
17649;BME280;8943;51.110;-4.158;2023-10-31T02:16:47;99240.53;;;15.82;57.68
17649;BME280;8943;51.110;-4.158;2023-10-31T02:19:19;99247.75;;;15.82;58.09
17649;BME280;8943;51.110;-4.158;2023-10-31T02:21:52;99247.06;;;15.80;57.79
17649;BME280;8943;51.110;-4.158;2023-10-31T02:24:36;99246.78;;;15.75;57.83
17649;BME280;8943;51.110;-4.158;2023-10-31T02:27:16;99255.22;;;15.72;57.54
17649;BME280;8943;51.110;-4.158;2023-10-31T02:29:47;99255.56;;;15.68;57.78
17649;BME280;8943;51.110;-4.158;2023-10-31T02:32:29;99251.38;;;15.66;57.68
17649;BME280;8943;51.110;-4.158;2023-10-31T02:34:59;99247.88;;;15.65;58.14
17649;BME280;8943;51.110;-4.158;2023-10-31T02:37:37;99247.53;;;15.68;58.17
17649;BME280;8943;51.110;-4.158;2023-10-31T02:40:08;99256.06;;;15.72;58.50
17649;BME280;8943;51.110;-4.158;2023-10-31T02:42:47;99253.81;;;15.76;58.60
17649;BME280;8943;51.110;-4.158;2023-10-31T02:45:17;99251.41;;;15.81;58.61
17649;BME280;8943;51.110;-4.158;2023-10-31T02:47:48;99265.53;;;15.83;58.28
17649;BME280;8943;51.110;-4.158;2023-10-31T02:50:24;99262.84;;;15.83;58.05
17649;BME280;8943;51.110;-4.158;2023-10-31T02:53:10;99260.34;;;15.81;57.93
17649;BME280;8943;51.110;-4.158;2023-10-31T02:56:09;99247.63;;;15.75;57.99
17649;BME280;8943;51.110;-4.158;2023-10-31T02:58:45;99245.47;;;15.70;57.73
17649;BME280;8943;51.110;-4.158;2023-10-31T03:01:36;99246.88;;;15.66;57.83
17649;BME280;8943;51.110;-4.158;2023-10-31T03:04:08;99247.88;;;15.65;58.20
17649;BME280;8943;51.110;-4.158;2023-10-31T03:06:59;99242.16;;;15.68;58.15
17649;BME280;8943;51.110;-4.158;2023-10-31T03:09:34;99250.69;;;15.72;58.47
17649;BME280;8943;51.110;-4.158;2023-10-31T03:12:16;99248.28;;;15.77;58.57
17649;BME280;8943;51.110;-4.158;2023-10-31T03:14:46;99255.81;;;15.82;58.66
17649;BME280;8943;51.110;-4.158;2023-10-31T03:17:17;99251.06;;;15.84;58.75
17649;BME280;8943;51.110;-4.158;2023-10-31T03:19:47;99244.97;;;15.90;58.67
17649;BME280;8943;51.110;-4.158;2023-10-31T03:22:17;99240.69;;;15.95;58.31
17649;BME280;8943;51.110;-4.158;2023-10-31T03:24:50;99243.22;;;15.97;58.63
17649;BME280;8943;51.110;-4.158;2023-10-31T03:27:18;99242.84;;;16.00;58.53
17649;BME280;8943;51.110;-4.158;2023-10-31T03:29:47;99254.25;;;16.02;58.55
17649;BME280;8943;51.110;-4.158;2023-10-31T03:32:19;99244.13;;;16.04;58.45
17649;BME280;8943;51.110;-4.158;2023-10-31T03:34:48;99249.34;;;16.06;58.72
17649;BME280;8943;51.110;-4.158;2023-10-31T03:37:16;99253.31;;;16.10;58.57
17649;BME280;8943;51.110;-4.158;2023-10-31T03:39:50;99253.59;;;16.15;58.73
17649;BME280;8943;51.110;-4.158;2023-10-31T03:42:19;99252.41;;;16.17;58.40
17649;BME280;8943;51.110;-4.158;2023-10-31T03:44:48;99254.06;;;16.18;58.57
17649;BME280;8943;51.110;-4.158;2023-10-31T03:47:17;99255.09;;;16.17;58.52
17649;BME280;8943;51.110;-4.158;2023-10-31T03:49:46;99260.47;;;16.17;58.44
17649;BME280;8943;51.110;-4.158;2023-10-31T03:52:15;99260.47;;;16.17;58.52
17649;BME280;8943;51.110;-4.158;2023-10-31T03:54:44;99257.59;;;16.19;58.65
17649;BME280;8943;51.110;-4.158;2023-10-31T03:57:18;99261.78;;;16.21;58.68
17649;BME280;8943;51.110;-4.158;2023-10-31T03:59:46;99267.78;;;16.23;58.58
17649;BME280;8943;51.110;-4.158;2023-10-31T04:02:15;99267.63;;;16.25;58.61
17649;BME280;8943;51.110;-4.158;2023-10-31T04:04:44;99268.06;;;16.29;58.77
17649;BME280;8943;51.110;-4.158;2023-10-31T04:07:15;99267.03;;;16.30;58.38
17649;BME280;8943;51.110;-4.158;2023-10-31T04:09:49;99266.03;;;16.31;58.55
17649;BME280;8943;51.110;-4.158;2023-10-31T04:12:40;99257.97;;;16.31;58.60
17649;BME280;8943;51.110;-4.158;2023-10-31T04:15:12;99263.78;;;16.34;58.66
17649;BME280;8943;51.110;-4.158;2023-10-31T04:17:44;99258.06;;;16.37;58.94
17649;BME280;8943;51.110;-4.158;2023-10-31T04:20:13;99253.78;;;16.43;58.60
17649;BME280;8943;51.110;-4.158;2023-10-31T04:22:44;99253.78;;;16.43;58.63
17649;BME280;8943;51.110;-4.158;2023-10-31T04:25:21;99260.47;;;16.47;58.22
17649;BME280;8943;51.110;-4.158;2023-10-31T04:28:15;99263.78;;;16.49;58.43
17649;BME280;8943;51.110;-4.158;2023-10-31T04:31:01;99272.50;;;16.51;58.58
17649;BME280;8943;51.110;-4.158;2023-10-31T04:33:52;99272.50;;;16.51;58.72
17649;BME280;8943;51.110;-4.158;2023-10-31T04:36:29;99277.06;;;16.51;58.43
17649;BME280;8943;51.110;-4.158;2023-10-31T04:42:01;99288.38;;;16.46;58.43
17649;BME280;8943;51.110;-4.158;2023-10-31T04:47:54;99295.13;;;16.42;58.71
17649;BME280;8943;51.110;-4.158;2023-10-31T04:50:23;99293.47;;;16.41;58.52
17649;BME280;8943;51.110;-4.158;2023-10-31T04:53:05;99299.41;;;16.36;58.67
17649;BME280;8943;51.110;-4.158;2023-10-31T04:55:54;99306.16;;;16.32;58.10
17649;BME280;8943;51.110;-4.158;2023-10-31T04:58:48;99300.31;;;16.29;58.85
17649;BME280;8943;51.110;-4.158;2023-10-31T05:01:32;99309.41;;;16.28;58.61
17649;BME280;8943;51.110;-4.158;2023-10-31T05:04:09;99314.41;;;16.31;59.01
17649;BME280;8943;51.110;-4.158;2023-10-31T05:06:41;99320.22;;;16.34;59.42
17649;BME280;8943;51.110;-4.158;2023-10-31T05:09:47;99319.53;;;16.40;59.33
17649;BME280;8943;51.110;-4.158;2023-10-31T05:12:20;99328.50;;;16.47;59.45
17649;BME280;8943;51.110;-4.158;2023-10-31T05:15:14;99332.78;;;16.57;59.46
17649;BME280;8943;51.110;-4.158;2023-10-31T05:17:58;99324.78;;;16.63;59.15
17649;BME280;8943;51.110;-4.158;2023-10-31T05:21:19;99341.03;;;16.70;59.23
17649;BME280;8943;51.110;-4.158;2023-10-31T05:24:06;99336.78;;;16.76;59.01
17649;BME280;8943;51.110;-4.158;2023-10-31T05:26:43;99346.72;;;16.75;58.95
17649;BME280;8943;51.110;-4.158;2023-10-31T05:29:35;99347.34;;;16.77;58.51
17649;BME280;8943;51.110;-4.158;2023-10-31T05:32:07;99347.34;;;16.77;58.85
17649;BME280;8943;51.110;-4.158;2023-10-31T05:34:38;99346.72;;;16.75;58.89
17649;BME280;8943;51.110;-4.158;2023-10-31T05:37:15;99353.97;;;16.75;58.70
17649;BME280;8943;51.110;-4.158;2023-10-31T05:39:45;99354.94;;;16.73;58.74
17649;BME280;8943;51.110;-4.158;2023-10-31T05:42:14;99357.63;;;16.73;58.50
17649;BME280;8943;51.110;-4.158;2023-10-31T05:44:44;99362.72;;;16.68;58.54
17649;BME280;8943;51.110;-4.158;2023-10-31T05:47:13;99362.91;;;16.67;58.66
17649;BME280;8943;51.110;-4.158;2023-10-31T05:50:03;99367.44;;;16.66;58.96
17649;BME280;8943;51.110;-4.158;2023-10-31T05:55:54;99363.25;;;16.64;59.66
17649;BME280;8943;51.110;-4.158;2023-10-31T05:58:24;99372.28;;;16.71;59.62
17649;BME280;8943;51.110;-4.158;2023-10-31T06:00:55;99371.75;;;16.76;59.30
17649;BME280;8943;51.110;-4.158;2023-10-31T06:03:27;99379.28;;;16.80;59.31
17649;BME280;8943;51.110;-4.158;2023-10-31T06:05:57;99376.03;;;16.85;59.04
17649;BME280;8943;51.110;-4.158;2023-10-31T06:08:31;99374.81;;;16.87;59.20
17649;BME280;8943;51.110;-4.158;2023-10-31T06:14:23;99385.28;;;16.97;58.71
17649;BME280;8943;51.110;-4.158;2023-10-31T06:17:07;99398.38;;;17.00;58.99
17649;BME280;8943;51.110;-4.158;2023-10-31T06:20:30;99395.31;;;17.03;59.00
17649;BME280;8943;51.110;-4.158;2023-10-31T06:23:20;99389.53;;;17.06;58.73
17649;BME280;8943;51.110;-4.158;2023-10-31T06:26:16;99397.88;;;17.11;58.71
17649;BME280;8943;51.110;-4.158;2023-10-31T06:28:59;99391.47;;;17.12;58.41
17649;BME280;8943;51.110;-4.158;2023-10-31T06:32:09;99397.53;;;17.14;58.35
17649;BME280;8943;51.110;-4.158;2023-10-31T06:35:07;99403.28;;;17.11;57.88
17649;BME280;8943;51.110;-4.158;2023-10-31T06:41:48;99399.75;;;16.96;57.78
17649;BME280;8943;51.110;-4.158;2023-10-31T06:44:33;99407.00;;;16.95;57.48
17649;BME280;8943;51.110;-4.158;2023-10-31T06:47:03;99408.19;;;16.93;57.38
17649;BME280;8943;51.110;-4.158;2023-10-31T06:49:34;99418.31;;;16.91;57.13
17649;BME280;8943;51.110;-4.158;2023-10-31T06:52:05;99420.38;;;16.89;57.01
17649;BME280;8943;51.110;-4.158;2023-10-31T06:54:35;99412.03;;;16.84;57.05
17649;BME280;8943;51.110;-4.158;2023-10-31T06:57:10;99423.63;;;16.84;56.82
17649;BME280;8943;51.110;-4.158;2023-10-31T06:59:55;99415.53;;;16.84;56.88
17649;BME280;8943;51.110;-4.158;2023-10-31T07:02:26;99429.44;;;16.88;56.94
17649;BME280;8943;51.110;-4.158;2023-10-31T07:04:58;99422.41;;;16.87;57.13
17649;BME280;8943;51.110;-4.158;2023-10-31T07:07:36;99427.41;;;16.90;57.01
17649;BME280;8943;51.110;-4.158;2023-10-31T07:10:08;99424.72;;;16.90;56.93
17649;BME280;8943;51.110;-4.158;2023-10-31T07:12:53;99422.59;;;16.85;56.82
17649;BME280;8943;51.110;-4.158;2023-10-31T07:15:24;99428.16;;;16.84;57.15
17649;BME280;8943;51.110;-4.158;2023-10-31T07:18:08;99428.53;;;16.81;57.02
17649;BME280;8943;51.110;-4.158;2023-10-31T07:21:08;99440.94;;;16.82;57.43
17649;BME280;8943;51.110;-4.158;2023-10-31T07:23:56;99433.34;;;16.85;57.54
17649;BME280;8943;51.110;-4.158;2023-10-31T12:48:31;99601.56;;;20.47;50.88
17649;BME280;8943;51.110;-4.158;2023-10-31T12:51:10;99602.97;;;20.36;51.63
17649;BME280;8943;51.110;-4.158;2023-10-31T13:54:17;99584.75;;;19.62;53.89
17649;BME280;8943;51.110;-4.158;2023-10-31T13:56:54;99574.13;;;19.61;54.26
17649;BME280;8943;51.110;-4.158;2023-10-31T13:59:40;99578.50;;;19.62;54.21
17649;BME280;8943;51.110;-4.158;2023-10-31T14:05:21;99572.47;;;19.60;54.75
17649;BME280;8943;51.110;-4.158;2023-10-31T14:08:17;99570.81;;;19.65;54.70
17649;BME280;8943;51.110;-4.158;2023-10-31T14:11:13;99579.16;;;19.70;54.39
17649;BME280;8943;51.110;-4.158;2023-10-31T14:14:15;99579.59;;;19.67;54.60
17649;BME280;8943;51.110;-4.158;2023-10-31T14:17:06;99572.47;;;19.66;54.62
17649;BME280;8943;51.110;-4.158;2023-10-31T14:19:35;99565.63;;;19.64;54.64
17649;BME280;8943;51.110;-4.158;2023-10-31T14:22:19;99568.94;;;19.66;54.91
17649;BME280;8943;51.110;-4.158;2023-10-31T14:25:28;99554.59;;;19.65;55.00
17649;BME280;8943;51.110;-4.158;2023-10-31T14:28:55;99561.69;;;19.66;55.11
17649;BME280;8943;51.110;-4.158;2023-10-31T14:31:56;99555.66;;;19.64;55.09
17649;BME280;8943;51.110;-4.158;2023-10-31T14:34:39;99553.38;;;19.68;54.74
17649;BME280;8943;51.110;-4.158;2023-10-31T14:37:36;99541.75;;;19.67;55.43
17649;BME280;8943;51.110;-4.158;2023-10-31T14:40:08;99537.19;;;19.68;55.31
17649;BME280;8943;51.110;-4.158;2023-10-31T14:42:38;99541.34;;;19.70;55.25
17649;BME280;8943;51.110;-4.158;2023-10-31T14:48:41;99541.34;;;19.70;55.10
17649;BME280;8943;51.110;-4.158;2023-10-31T14:51:24;99541.75;;;19.67;55.16
17649;BME280;8943;51.110;-4.158;2023-10-31T14:54:28;99531.78;;;19.68;55.04
17649;BME280;8943;51.110;-4.158;2023-10-31T14:57:36;99543.00;;;19.71;55.48
17649;BME280;8943;51.110;-4.158;2023-10-31T15:09:32;99530.84;;;19.54;55.59
17649;BME280;8943;51.110;-4.158;2023-10-31T15:34:36;99537.47;;;18.89;55.97
17649;BME280;8943;51.110;-4.158;2023-10-31T15:48:32;99527.34;;;18.69;56.42
17649;BME280;8943;51.110;-4.158;2023-10-31T21:07:57;99266.16;;;17.67;59.22
17649;BME280;8943;51.110;-4.158;2023-10-31T21:27:04;99249.88;;;17.75;59.36
17649;BME280;8943;51.110;-4.158;2023-10-31T21:29:34;99239.56;;;17.79;59.31
17649;BME280;8943;51.110;-4.158;2023-10-31T21:32:06;99238.34;;;17.82;59.27
17649;BME280;8943;51.110;-4.158;2023-10-31T21:35:04;99223.84;;;17.83;59.49
